sensor_id;sensor_type;location;lat;lon;timestamp;pressure;altitude;pressure_sealevel;temperature;humidity
39449;BME280;25151;45.566;9.382;2023-02-23T00:00:05;99668.63;;;19.80;55.95
39449;BME280;25151;45.566;9.382;2023-02-23T00:03:20;99670.66;;;19.80;55.87
39449;BME280;25151;45.566;9.382;2023-02-23T00:06:21;99668.63;;;19.80;55.75
39449;BME280;25151;45.566;9.382;2023-02-23T00:09:22;99660.22;;;19.80;56.02
39449;BME280;25151;45.566;9.382;2023-02-23T00:12:23;99659.88;;;19.78;55.88
39449;BME280;25151;45.566;9.382;2023-02-23T00:15:26;99655.06;;;19.79;55.99
39449;BME280;25151;45.566;9.382;2023-02-23T00:18:29;99659.56;;;19.76;55.80
39449;BME280;25151;45.566;9.382;2023-02-23T00:21:30;99666.25;;;19.79;55.91
39449;BME280;25151;45.566;9.382;2023-02-23T00:24:38;99658.75;;;19.76;55.78
39449;BME280;25151;45.566;9.382;2023-02-23T00:27:41;99661.56;;;19.76;55.69
39449;BME280;25151;45.566;9.382;2023-02-23T00:30:45;99661.56;;;19.76;55.79
39449;BME280;25151;45.566;9.382;2023-02-23T00:33:46;99659.22;;;19.74;55.91
39449;BME280;25151;45.566;9.382;2023-02-23T00:36:52;99657.19;;;19.75;55.68
39449;BME280;25151;45.566;9.382;2023-02-23T00:39:55;99652.06;;;19.73;55.86
39449;BME280;25151;45.566;9.382;2023-02-23T00:42:56;99649.25;;;19.73;55.70
39449;BME280;25151;45.566;9.382;2023-02-23T00:45:57;99654.50;;;19.71;55.88
39449;BME280;25151;45.566;9.382;2023-02-23T00:48:58;99651.28;;;19.73;56.13
39449;BME280;25151;45.566;9.382;2023-02-23T00:51:59;99649.69;;;19.72;55.95
39449;BME280;25151;45.566;9.382;2023-02-23T00:54:59;99645.69;;;19.73;55.87
39449;BME280;25151;45.566;9.382;2023-02-23T00:58:00;99651.28;;;19.73;55.76
39449;BME280;25151;45.566;9.382;2023-02-23T01:01:11;99644.09;;;19.72;55.76
39449;BME280;25151;45.566;9.382;2023-02-23T01:04:13;99654.50;;;19.71;55.76
39449;BME280;25151;45.566;9.382;2023-02-23T01:07:13;99646.56;;;19.70;55.68
39449;BME280;25151;45.566;9.382;2023-02-23T01:10:14;99637.41;;;19.69;55.79
39449;BME280;25151;45.566;9.382;2023-02-23T01:13:22;99638.63;;;19.68;55.36
39449;BME280;25151;45.566;9.382;2023-02-23T01:16:26;99641.88;;;19.67;55.89
39449;BME280;25151;45.566;9.382;2023-02-23T01:19:27;99639.06;;;19.67;55.48
39449;BME280;25151;45.566;9.382;2023-02-23T01:22:28;99637.81;;;19.68;55.83
39449;BME280;25151;45.566;9.382;2023-02-23T01:25:31;99633.94;;;19.65;55.66
39449;BME280;25151;45.566;9.382;2023-02-23T01:28:32;99638.28;;;19.66;55.67
39449;BME280;25151;45.566;9.382;2023-02-23T01:31:33;99645.13;;;19.65;55.77
39449;BME280;25151;45.566;9.382;2023-02-23T01:34:34;99635.50;;;19.66;55.58
39449;BME280;25151;45.566;9.382;2023-02-23T01:37:36;99640.31;;;19.65;55.79
39449;BME280;25151;45.566;9.382;2023-02-23T01:40:41;99634.72;;;19.65;56.07
39449;BME280;25151;45.566;9.382;2023-02-23T01:46:55;99631.56;;;19.63;55.60
39449;BME280;25151;45.566;9.382;2023-02-23T01:49:57;99624.41;;;19.62;55.75
39449;BME280;25151;45.566;9.382;2023-02-23T01:52:58;99627.22;;;19.62;55.53
39449;BME280;25151;45.566;9.382;2023-02-23T01:56:10;99631.56;;;19.63;55.46
39449;BME280;25151;45.566;9.382;2023-02-23T01:59:15;99624.41;;;19.62;55.57
39449;BME280;25151;45.566;9.382;2023-02-23T02:02:18;99621.63;;;19.62;55.73
39449;BME280;25151;45.566;9.382;2023-02-23T02:05:20;99630.00;;;19.62;55.76
39449;BME280;25151;45.566;9.382;2023-02-23T02:08:21;99622.84;;;19.61;55.67
39449;BME280;25151;45.566;9.382;2023-02-23T02:11:24;99619.25;;;19.61;55.60
39449;BME280;25151;45.566;9.382;2023-02-23T02:14:35;99619.69;;;19.59;55.68
39449;BME280;25151;45.566;9.382;2023-02-23T02:20:56;99620.47;;;19.60;55.77
39449;BME280;25151;45.566;9.382;2023-02-23T02:24:26;99614.09;;;19.59;55.53
39449;BME280;25151;45.566;9.382;2023-02-23T02:27:58;99614.09;;;19.59;55.73
39449;BME280;25151;45.566;9.382;2023-02-23T02:31:21;99606.94;;;19.58;55.38
39449;BME280;25151;45.566;9.382;2023-02-23T02:41:47;99598.22;;;19.56;55.55
39449;BME280;25151;45.566;9.382;2023-02-23T02:45:04;99593.41;;;19.57;55.57
39449;BME280;25151;45.566;9.382;2023-02-23T02:51:50;99591.03;;;19.55;55.73
39449;BME280;25151;45.566;9.382;2023-02-23T02:54:55;99591.03;;;19.55;55.55
39449;BME280;25151;45.566;9.382;2023-02-23T02:57:57;99588.69;;;19.54;55.51
39449;BME280;25151;45.566;9.382;2023-02-23T03:01:11;99585.44;;;19.55;55.43
39449;BME280;25151;45.566;9.382;2023-02-23T03:04:30;99592.72;;;19.53;55.63
39449;BME280;25151;45.566;9.382;2023-02-23T03:11:39;99594.28;;;19.54;55.52
39449;BME280;25151;45.566;9.382;2023-02-23T03:18:54;99586.38;;;19.52;55.42
39449;BME280;25151;45.566;9.382;2023-02-23T03:25:53;99589.16;;;19.52;55.47
39449;BME280;25151;45.566;9.382;2023-02-23T03:29:30;99580.41;;;19.50;55.59
39449;BME280;25151;45.566;9.382;2023-02-23T03:32:55;99578.41;;;19.51;55.57
39449;BME280;25151;45.566;9.382;2023-02-23T03:36:23;99581.97;;;19.51;55.49
39449;BME280;25151;45.566;9.382;2023-02-23T03:39:50;99584.00;;;19.51;55.67
39449;BME280;25151;45.566;9.382;2023-02-23T03:43:16;99577.63;;;19.50;55.66
39449;BME280;25151;45.566;9.382;2023-02-23T03:46:37;99587.25;;;19.49;55.54
39449;BME280;25151;45.566;9.382;2023-02-23T03:50:00;99585.69;;;19.48;55.41
39449;BME280;25151;45.566;9.382;2023-02-23T03:53:31;99583.66;;;19.49;55.37
39449;BME280;25151;45.566;9.382;2023-02-23T03:56:54;99580.88;;;19.49;55.71
39449;BME280;25151;45.566;9.382;2023-02-23T04:00:20;99584.09;;;19.47;55.44
39449;BME280;25151;45.566;9.382;2023-02-23T04:03:43;99583.31;;;19.47;55.36
39449;BME280;25151;45.566;9.382;2023-02-23T04:07:05;99592.50;;;19.47;55.27
39449;BME280;25151;45.566;9.382;2023-02-23T04:10:26;99588.13;;;19.46;55.60
39449;BME280;25151;45.566;9.382;2023-02-23T04:13:53;99592.94;;;19.46;55.51
39449;BME280;25151;45.566;9.382;2023-02-23T04:16:57;99582.53;;;19.46;55.54
39449;BME280;25151;45.566;9.382;2023-02-23T04:19:58;99582.53;;;19.46;55.46
39449;BME280;25151;45.566;9.382;2023-02-23T04:22:58;99592.16;;;19.45;55.46
39449;BME280;25151;45.566;9.382;2023-02-23T04:25:59;99597.75;;;19.45;55.72
39449;BME280;25151;45.566;9.382;2023-02-23T04:29:00;99593.72;;;19.46;55.51
39449;BME280;25151;45.566;9.382;2023-02-23T04:32:00;99596.97;;;19.45;55.58
39449;BME280;25151;45.566;9.382;2023-02-23T04:35:01;99601.78;;;19.44;55.52
39449;BME280;25151;45.566;9.382;2023-02-23T04:38:02;99597.75;;;19.45;55.52
39449;BME280;25151;45.566;9.382;2023-02-23T04:41:02;99597.41;;;19.43;55.53
39449;BME280;25151;45.566;9.382;2023-02-23T04:44:03;99596.19;;;19.44;55.44
39449;BME280;25151;45.566;9.382;2023-02-23T04:47:04;99596.19;;;19.44;55.37
39449;BME280;25151;45.566;9.382;2023-02-23T04:50:05;99606.56;;;19.44;55.34
39449;BME280;25151;45.566;9.382;2023-02-23T04:53:06;99600.22;;;19.43;55.56
39449;BME280;25151;45.566;9.382;2023-02-23T04:56:08;99605.03;;;19.42;55.47
39449;BME280;25151;45.566;9.382;2023-02-23T04:59:08;99601.44;;;19.42;55.42
39449;BME280;25151;45.566;9.382;2023-02-23T05:02:09;99601.44;;;19.42;55.44
39449;BME280;25151;45.566;9.382;2023-02-23T05:05:09;99596.31;;;19.40;55.52
39449;BME280;25151;45.566;9.382;2023-02-23T05:08:10;99599.88;;;19.41;55.46
39449;BME280;25151;45.566;9.382;2023-02-23T05:11:11;99606.69;;;19.40;55.55
39449;BME280;25151;45.566;9.382;2023-02-23T05:14:12;99605.13;;;19.39;55.39
39449;BME280;25151;45.566;9.382;2023-02-23T05:17:13;99606.69;;;19.40;55.45
39449;BME280;25151;45.566;9.382;2023-02-23T05:20:13;99601.09;;;19.40;55.49
39449;BME280;25151;45.566;9.382;2023-02-23T05:23:14;99595.19;;;19.38;55.35
39449;BME280;25151;45.566;9.382;2023-02-23T05:26:15;99593.94;;;19.39;55.47
39449;BME280;25151;45.566;9.382;2023-02-23T05:29:16;99596.31;;;19.40;55.59
39449;BME280;25151;45.566;9.382;2023-02-23T05:32:17;99595.50;;;19.40;55.39
39449;BME280;25151;45.566;9.382;2023-02-23T05:35:17;99592.72;;;19.40;55.46
39449;BME280;25151;45.566;9.382;2023-02-23T05:38:18;99591.16;;;19.39;55.36
39449;BME280;25151;45.566;9.382;2023-02-23T05:41:21;99589.13;;;19.39;55.34
39449;BME280;25151;45.566;9.382;2023-02-23T05:44:22;99591.16;;;19.39;55.39
39449;BME280;25151;45.566;9.382;2023-02-23T05:47:23;99593.94;;;19.39;55.42
39449;BME280;25151;45.566;9.382;2023-02-23T05:50:24;99595.19;;;19.38;55.33
39449;BME280;25151;45.566;9.382;2023-02-23T05:53:25;99593.94;;;19.39;55.44
39449;BME280;25151;45.566;9.382;2023-02-23T05:56:26;99596.41;;;19.37;55.25
39449;BME280;25151;45.566;9.382;2023-02-23T05:59:27;99597.19;;;19.37;55.61
39449;BME280;25151;45.566;9.382;2023-02-23T06:02:27;99598.44;;;19.36;55.90
39449;BME280;25151;45.566;9.382;2023-02-23T06:05:29;99602.00;;;19.37;55.22
39449;BME280;25151;45.566;9.382;2023-02-23T06:08:30;99613.19;;;19.37;55.62
39449;BME280;25151;45.566;9.382;2023-02-23T06:11:31;99607.59;;;19.37;55.38
39449;BME280;25151;45.566;9.382;2023-02-23T06:14:32;99611.59;;;19.36;55.29
39449;BME280;25151;45.566;9.382;2023-02-23T06:17:34;99610.03;;;19.35;55.55
39449;BME280;25151;45.566;9.382;2023-02-23T06:20:35;99617.19;;;19.36;55.40
39449;BME280;25151;45.566;9.382;2023-02-23T06:23:36;99615.63;;;19.35;55.21
39449;BME280;25151;45.566;9.382;2023-02-23T06:26:37;99615.63;;;19.35;55.44
39449;BME280;25151;45.566;9.382;2023-02-23T06:29:37;99621.22;;;19.35;55.27
39449;BME280;25151;45.566;9.382;2023-02-23T06:32:38;99619.66;;;19.34;55.58
39449;BME280;25151;45.566;9.382;2023-02-23T06:35:39;99630.84;;;19.34;55.49
39449;BME280;25151;45.566;9.382;2023-02-23T06:38:39;99635.66;;;19.33;55.34
39449;BME280;25151;45.566;9.382;2023-02-23T06:41:40;99632.41;;;19.35;55.54
39449;BME280;25151;45.566;9.382;2023-02-23T06:44:41;99630.84;;;19.34;55.40
39449;BME280;25151;45.566;9.382;2023-02-23T06:47:41;99631.31;;;19.32;55.34
39449;BME280;25151;45.566;9.382;2023-02-23T06:50:42;99641.34;;;19.30;55.37
39449;BME280;25151;45.566;9.382;2023-02-23T06:53:43;99637.31;;;19.31;55.48
39449;BME280;25151;45.566;9.382;2023-02-23T06:56:43;99649.28;;;19.31;55.47
39449;BME280;25151;45.566;9.382;2023-02-23T06:59:44;99652.88;;;19.32;55.54
39449;BME280;25151;45.566;9.382;2023-02-23T07:02:45;99642.91;;;19.31;55.41
39449;BME280;25151;45.566;9.382;2023-02-23T07:05:45;99658.03;;;19.33;55.20
39449;BME280;25151;45.566;9.382;2023-02-23T07:08:46;99652.44;;;19.33;55.22
39449;BME280;25151;45.566;9.382;2023-02-23T07:11:47;99659.94;;;19.36;55.15
39449;BME280;25151;45.566;9.382;2023-02-23T07:14:48;99659.81;;;19.40;55.39
39449;BME280;25151;45.566;9.382;2023-02-23T07:17:49;99660.94;;;19.42;55.27
39449;BME280;25151;45.566;9.382;2023-02-23T07:20:52;99663.63;;;19.46;55.32
39449;BME280;25151;45.566;9.382;2023-02-23T07:23:52;99664.31;;;19.50;55.14
39449;BME280;25151;45.566;9.382;2023-02-23T07:26:53;99667.00;;;19.54;55.08
39449;BME280;25151;45.566;9.382;2023-02-23T07:29:54;99672.38;;;19.61;55.05
39449;BME280;25151;45.566;9.382;2023-02-23T07:32:54;99666.72;;;19.64;55.15
39449;BME280;25151;45.566;9.382;2023-02-23T07:35:55;99671.63;;;19.73;55.20
39449;BME280;25151;45.566;9.382;2023-02-23T07:38:55;99669.50;;;19.77;54.85
39449;BME280;25151;45.566;9.382;2023-02-23T07:41:57;99676.00;;;19.87;54.98
39449;BME280;25151;45.566;9.382;2023-02-23T07:44:58;99680.47;;;19.97;54.68
39449;BME280;25151;45.566;9.382;2023-02-23T07:47:58;99676.78;;;20.00;54.55
39449;BME280;25151;45.566;9.382;2023-02-23T07:50:59;99680.94;;;20.08;54.61
39449;BME280;25151;45.566;9.382;2023-02-23T07:54:03;99677.91;;;20.16;54.63
39449;BME280;25151;45.566;9.382;2023-02-23T07:57:04;99683.59;;;20.25;54.45
39449;BME280;25151;45.566;9.382;2023-02-23T08:00:09;99676.75;;;20.26;54.57
39449;BME280;25151;45.566;9.382;2023-02-23T08:03:11;99683.03;;;20.30;54.54
39449;BME280;25151;45.566;9.382;2023-02-23T08:06:12;99680.56;;;20.32;54.35
39449;BME280;25151;45.566;9.382;2023-02-23T08:09:13;99682.00;;;20.36;54.32
39449;BME280;25151;45.566;9.382;2023-02-23T08:12:14;99685.91;;;20.39;54.48
39449;BME280;25151;45.566;9.382;2023-02-23T08:15:15;99682.66;;;20.41;54.41
39449;BME280;25151;45.566;9.382;2023-02-23T08:18:16;99687.81;;;20.42;54.27
39449;BME280;25151;45.566;9.382;2023-02-23T08:21:17;99682.56;;;20.44;54.08
39449;BME280;25151;45.566;9.382;2023-02-23T08:24:17;99682.56;;;20.44;54.11
39449;BME280;25151;45.566;9.382;2023-02-23T08:27:18;99684.13;;;20.45;54.08
39449;BME280;25151;45.566;9.382;2023-02-23T08:30:21;99682.88;;;20.46;54.16
39449;BME280;25151;45.566;9.382;2023-02-23T08:33:23;99688.03;;;20.48;54.13
39449;BME280;25151;45.566;9.382;2023-02-23T08:36:24;99680.06;;;20.46;54.08
39449;BME280;25151;45.566;9.382;2023-02-23T08:39:25;99685.66;;;20.46;54.10
39449;BME280;25151;45.566;9.382;2023-02-23T08:42:27;99682.44;;;20.48;53.98
39449;BME280;25151;45.566;9.382;2023-02-23T08:45:28;99683.22;;;20.48;53.91
39449;BME280;25151;45.566;9.382;2023-02-23T08:48:29;99688.81;;;20.48;53.86
39449;BME280;25151;45.566;9.382;2023-02-23T08:51:30;99688.38;;;20.50;53.90
39449;BME280;25151;45.566;9.382;2023-02-23T08:54:31;99690.41;;;20.49;53.88
39449;BME280;25151;45.566;9.382;2023-02-23T08:57:34;99691.63;;;20.48;53.99
39449;BME280;25151;45.566;9.382;2023-02-23T09:00:37;99691.19;;;20.50;53.93
39449;BME280;25151;45.566;9.382;2023-02-23T09:03:37;99689.63;;;20.49;54.01
39449;BME280;25151;45.566;9.382;2023-02-23T09:06:39;99695.22;;;20.49;54.12
39449;BME280;25151;45.566;9.382;2023-02-23T09:09:40;99696.00;;;20.49;53.85
39449;BME280;25151;45.566;9.382;2023-02-23T09:12:41;99695.22;;;20.49;53.92
39449;BME280;25151;45.566;9.382;2023-02-23T09:15:46;99700.03;;;20.48;54.07
39449;BME280;25151;45.566;9.382;2023-02-23T09:18:47;99699.25;;;20.48;54.04
39449;BME280;25151;45.566;9.382;2023-02-23T09:21:48;99702.81;;;20.48;53.86
39449;BME280;25151;45.566;9.382;2023-02-23T09:24:48;99696.78;;;20.50;53.85
39449;BME280;25151;45.566;9.382;2023-02-23T09:27:52;99696.00;;;20.49;54.07
39449;BME280;25151;45.566;9.382;2023-02-23T09:30:52;99699.16;;;20.51;54.05
39449;BME280;25151;45.566;9.382;2023-02-23T09:33:53;99697.56;;;20.50;54.19
39449;BME280;25151;45.566;9.382;2023-02-23T09:36:54;99707.22;;;20.49;54.22
39449;BME280;25151;45.566;9.382;2023-02-23T09:39:55;99699.81;;;20.55;54.21
39449;BME280;25151;45.566;9.382;2023-02-23T09:43:06;99707.88;;;20.53;53.97
39449;BME280;25151;45.566;9.382;2023-02-23T09:49:32;99711.13;;;20.52;54.21
39449;BME280;25151;45.566;9.382;2023-02-23T09:52:41;99707.22;;;20.49;54.06
39449;BME280;25151;45.566;9.382;2023-02-23T09:55:44;99713.47;;;20.53;54.27
39449;BME280;25151;45.566;9.382;2023-02-23T09:58:47;99716.75;;;20.52;53.94
39449;BME280;25151;45.566;9.382;2023-02-23T10:05:03;99712.69;;;20.53;54.44
39449;BME280;25151;45.566;9.382;2023-02-23T10:08:07;99715.03;;;20.54;54.35
39449;BME280;25151;45.566;9.382;2023-02-23T10:11:44;99707.09;;;20.53;54.36
39449;BME280;25151;45.566;9.382;2023-02-23T10:17:59;99722.34;;;20.52;54.41
39449;BME280;25151;45.566;9.382;2023-02-23T10:21:10;99715.97;;;20.51;54.31
39449;BME280;25151;45.566;9.382;2023-02-23T10:24:34;99718.63;;;20.55;54.46
39449;BME280;25151;45.566;9.382;2023-02-23T10:27:44;99717.84;;;20.54;54.34
39449;BME280;25151;45.566;9.382;2023-02-23T10:30:49;99723.91;;;20.53;54.51
39449;BME280;25151;45.566;9.382;2023-02-23T10:33:55;99720.31;;;20.52;54.71
39449;BME280;25151;45.566;9.382;2023-02-23T10:37:00;99711.91;;;20.52;54.47
39449;BME280;25151;45.566;9.382;2023-02-23T10:40:02;99713.94;;;20.52;54.59
39449;BME280;25151;45.566;9.382;2023-02-23T10:43:04;99707.56;;;20.51;54.73
39449;BME280;25151;45.566;9.382;2023-02-23T10:46:06;99706.31;;;20.52;54.83
39449;BME280;25151;45.566;9.382;2023-02-23T10:49:18;99716.75;;;20.52;54.64
39449;BME280;25151;45.566;9.382;2023-02-23T10:52:43;99713.94;;;20.52;54.94
39449;BME280;25151;45.566;9.382;2023-02-23T10:55:46;99704.75;;;20.51;55.07
39449;BME280;25151;45.566;9.382;2023-02-23T10:59:00;99708.78;;;20.50;54.66
39449;BME280;25151;45.566;9.382;2023-02-23T11:02:21;99707.56;;;20.51;54.99
39449;BME280;25151;45.566;9.382;2023-02-23T11:08:38;99697.13;;;20.52;54.73
39449;BME280;25151;45.566;9.382;2023-02-23T11:11:54;99699.94;;;20.52;54.67
39449;BME280;25151;45.566;9.382;2023-02-23T11:14:57;99690.75;;;20.51;54.93
39449;BME280;25151;45.566;9.382;2023-02-23T11:18:02;99690.75;;;20.51;54.76
39449;BME280;25151;45.566;9.382;2023-02-23T11:21:09;99686.38;;;20.50;55.05
39449;BME280;25151;45.566;9.382;2023-02-23T11:27:21;99684.03;;;20.49;54.97
39449;BME280;25151;45.566;9.382;2023-02-23T11:30:27;99685.25;;;20.48;54.60
39449;BME280;25151;45.566;9.382;2023-02-23T11:33:32;99680.06;;;20.46;55.04
39449;BME280;25151;45.566;9.382;2023-02-23T11:36:36;99679.75;;;20.44;54.98
39449;BME280;25151;45.566;9.382;2023-02-23T11:39:52;99681.00;;;20.43;54.77
39449;BME280;25151;45.566;9.382;2023-02-23T11:45:56;99670.56;;;20.44;54.73
39449;BME280;25151;45.566;9.382;2023-02-23T11:49:06;99675.41;;;20.43;54.69
39449;BME280;25151;45.566;9.382;2023-02-23T11:52:15;99673.69;;;20.46;54.91
39449;BME280;25151;45.566;9.382;2023-02-23T11:55:17;99660.94;;;20.45;54.82
39449;BME280;25151;45.566;9.382;2023-02-23T11:58:37;99668.22;;;20.42;54.75
39449;BME280;25151;45.566;9.382;2023-02-23T12:01:48;99668.56;;;20.44;54.90
39449;BME280;25151;45.566;9.382;2023-02-23T12:08:14;99649.84;;;20.41;54.78
39449;BME280;25151;45.566;9.382;2023-02-23T12:11:19;99652.19;;;20.43;54.55
39449;BME280;25151;45.566;9.382;2023-02-23T12:14:29;99654.53;;;20.44;54.76
39449;BME280;25151;45.566;9.382;2023-02-23T12:17:48;99637.75;;;20.44;55.18
39449;BME280;25151;45.566;9.382;2023-02-23T12:20:52;99642.56;;;20.44;55.30
39449;BME280;25151;45.566;9.382;2023-02-23T12:27:26;99632.13;;;20.44;55.27
39449;BME280;25151;45.566;9.382;2023-02-23T12:30:42;99639.31;;;20.45;55.65
39449;BME280;25151;45.566;9.382;2023-02-23T12:33:54;99636.19;;;20.43;55.63
39449;BME280;25151;45.566;9.382;2023-02-23T12:40:32;99633.03;;;20.41;55.74
39449;BME280;25151;45.566;9.382;2023-02-23T12:43:56;99629.91;;;20.39;56.03
39449;BME280;25151;45.566;9.382;2023-02-23T12:47:06;99637.09;;;20.40;55.75
39449;BME280;25151;45.566;9.382;2023-02-23T12:50:58;99631.91;;;20.38;55.99
39449;BME280;25151;45.566;9.382;2023-02-23T12:54:02;99626.78;;;20.37;56.18
39449;BME280;25151;45.566;9.382;2023-02-23T12:57:36;99625.53;;;20.38;56.25
39449;BME280;25151;45.566;9.382;2023-02-23T13:01:07;99626.78;;;20.37;56.21
39449;BME280;25151;45.566;9.382;2023-02-23T13:07:51;99618.03;;;20.35;56.14
39449;BME280;25151;45.566;9.382;2023-02-23T13:14:21;99614.91;;;20.33;56.32
39449;BME280;25151;45.566;9.382;2023-02-23T13:24:06;99606.53;;;20.33;56.48
39449;BME280;25151;45.566;9.382;2023-02-23T13:27:33;99614.91;;;20.33;56.36
39449;BME280;25151;45.566;9.382;2023-02-23T13:30:35;99609.31;;;20.33;56.66
39449;BME280;25151;45.566;9.382;2023-02-23T13:33:43;99600.56;;;20.31;56.59
39449;BME280;25151;45.566;9.382;2023-02-23T13:36:44;99610.56;;;20.32;56.88
39449;BME280;25151;45.566;9.382;2023-02-23T13:40:19;99610.88;;;20.34;56.68
39449;BME280;25151;45.566;9.382;2023-02-23T13:43:33;99612.59;;;20.31;56.79
39449;BME280;25151;45.566;9.382;2023-02-23T13:47:01;99611.34;;;20.32;56.41
39449;BME280;25151;45.566;9.382;2023-02-23T13:53:40;99608.06;;;20.34;56.57
39449;BME280;25151;45.566;9.382;2023-02-23T13:56:45;99603.72;;;20.33;56.95
39449;BME280;25151;45.566;9.382;2023-02-23T13:59:49;99610.09;;;20.33;56.75
39449;BME280;25151;45.566;9.382;2023-02-23T14:02:50;99596.56;;;20.32;56.93
39449;BME280;25151;45.566;9.382;2023-02-23T14:05:56;99600.44;;;20.34;56.86
39449;BME280;25151;45.566;9.382;2023-02-23T14:09:07;99601.69;;;20.33;56.79
39449;BME280;25151;45.566;9.382;2023-02-23T14:12:36;99602.16;;;20.32;57.04
39449;BME280;25151;45.566;9.382;2023-02-23T14:21:58;99590.19;;;20.31;56.91
39449;BME280;25151;45.566;9.382;2023-02-23T14:28:36;99593.41;;;20.30;57.11
39449;BME280;25151;45.566;9.382;2023-02-23T14:31:59;99599.00;;;20.30;56.83
39449;BME280;25151;45.566;9.382;2023-02-23T14:35:00;99594.97;;;20.31;57.01
39449;BME280;25151;45.566;9.382;2023-02-23T14:38:16;99594.97;;;20.31;56.76
39449;BME280;25151;45.566;9.382;2023-02-23T14:41:30;99594.97;;;20.31;56.71
39449;BME280;25151;45.566;9.382;2023-02-23T14:44:36;99593.41;;;20.30;56.80
39449;BME280;25151;45.566;9.382;2023-02-23T14:47:45;99591.84;;;20.29;56.94
39449;BME280;25151;45.566;9.382;2023-02-23T14:50:47;99592.63;;;20.29;57.12
39449;BME280;25151;45.566;9.382;2023-02-23T14:53:48;99601.81;;;20.30;57.00
39449;BME280;25151;45.566;9.382;2023-02-23T14:56:56;99599.00;;;20.30;56.88
39449;BME280;25151;45.566;9.382;2023-02-23T15:00:22;99596.69;;;20.28;56.96
39449;BME280;25151;45.566;9.382;2023-02-23T15:03:23;99588.72;;;20.27;57.03
39449;BME280;25151;45.566;9.382;2023-02-23T15:06:24;99594.31;;;20.27;57.03
39449;BME280;25151;45.566;9.382;2023-02-23T15:09:44;99589.53;;;20.27;56.96
39449;BME280;25151;45.566;9.382;2023-02-23T15:12:46;99582.03;;;20.24;56.75
39449;BME280;25151;45.566;9.382;2023-02-23T15:15:48;99585.59;;;20.25;56.90
39449;BME280;25151;45.566;9.382;2023-02-23T15:18:49;99593.53;;;20.26;57.01
39449;BME280;25151;45.566;9.382;2023-02-23T15:21:53;99588.72;;;20.27;57.11
39449;BME280;25151;45.566;9.382;2023-02-23T15:25:07;99590.72;;;20.26;56.89
39449;BME280;25151;45.566;9.382;2023-02-23T15:28:20;99588.72;;;20.27;56.82
39449;BME280;25151;45.566;9.382;2023-02-23T15:31:37;99588.72;;;20.27;56.87
39449;BME280;25151;45.566;9.382;2023-02-23T15:34:55;99584.34;;;20.26;57.07
39449;BME280;25151;45.566;9.382;2023-02-23T15:37:57;99582.34;;;20.26;56.88
39449;BME280;25151;45.566;9.382;2023-02-23T15:41:02;99583.13;;;20.27;57.08
39449;BME280;25151;45.566;9.382;2023-02-23T15:44:23;99579.22;;;20.24;57.15
39449;BME280;25151;45.566;9.382;2023-02-23T15:47:30;99576.41;;;20.24;56.85
39449;BME280;25151;45.566;9.382;2023-02-23T15:50:40;99585.13;;;20.26;57.04
39449;BME280;25151;45.566;9.382;2023-02-23T15:53:42;99575.97;;;20.26;56.93
39449;BME280;25151;45.566;9.382;2023-02-23T15:56:47;99574.84;;;20.23;57.10
39449;BME280;25151;45.566;9.382;2023-02-23T15:59:49;99572.84;;;20.24;57.13
39449;BME280;25151;45.566;9.382;2023-02-23T16:02:50;99576.84;;;20.23;57.26
39449;BME280;25151;45.566;9.382;2023-02-23T16:05:58;99576.84;;;20.23;57.12
39449;BME280;25151;45.566;9.382;2023-02-23T16:09:14;99570.47;;;20.22;57.05
39449;BME280;25151;45.566;9.382;2023-02-23T16:12:36;99573.28;;;20.22;57.10
39449;BME280;25151;45.566;9.382;2023-02-23T16:15:41;99580.91;;;20.22;57.19
39449;BME280;25151;45.566;9.382;2023-02-23T16:18:44;99579.66;;;20.23;57.02
39449;BME280;25151;45.566;9.382;2023-02-23T16:21:52;99579.66;;;20.23;57.12
39449;BME280;25151;45.566;9.382;2023-02-23T16:28:31;99585.25;;;20.23;57.00
39449;BME280;25151;45.566;9.382;2023-02-23T16:31:42;99579.34;;;20.21;57.13
39449;BME280;25151;45.566;9.382;2023-02-23T16:34:54;99579.34;;;20.21;57.19
39449;BME280;25151;45.566;9.382;2023-02-23T16:38:01;99585.72;;;20.21;57.26
39449;BME280;25151;45.566;9.382;2023-02-23T16:41:04;99574.97;;;20.20;57.11
39449;BME280;25151;45.566;9.382;2023-02-23T16:44:06;99573.75;;;20.21;57.12
39449;BME280;25151;45.566;9.382;2023-02-23T16:47:32;99575.31;;;20.22;57.19
39449;BME280;25151;45.566;9.382;2023-02-23T16:50:35;99567.81;;;20.19;57.12
39449;BME280;25151;45.566;9.382;2023-02-23T16:53:40;99577.78;;;20.20;56.94
39449;BME280;25151;45.566;9.382;2023-02-23T16:56:41;99581.03;;;20.18;56.84
39449;BME280;25151;45.566;9.382;2023-02-23T16:59:42;99573.09;;;20.17;56.91
39449;BME280;25151;45.566;9.382;2023-02-23T17:02:43;99577.91;;;20.16;56.52
39449;BME280;25151;45.566;9.382;2023-02-23T17:05:45;99575.09;;;20.16;56.78
39449;BME280;25151;45.566;9.382;2023-02-23T17:08:45;99582.72;;;20.16;56.62
39449;BME280;25151;45.566;9.382;2023-02-23T17:11:47;99583.16;;;20.14;56.32
39449;BME280;25151;45.566;9.382;2023-02-23T17:14:48;99585.19;;;20.13;56.22
39449;BME280;25151;45.566;9.382;2023-02-23T17:17:49;99587.97;;;20.13;56.34
39449;BME280;25151;45.566;9.382;2023-02-23T17:20:53;99588.44;;;20.12;56.55
39449;BME280;25151;45.566;9.382;2023-02-23T17:23:54;99592.03;;;20.12;56.36
39449;BME280;25151;45.566;9.382;2023-02-23T17:27:02;99593.25;;;20.11;56.16
39449;BME280;25151;45.566;9.382;2023-02-23T17:30:04;99594.81;;;20.12;56.20
39449;BME280;25151;45.566;9.382;2023-02-23T17:33:05;99600.84;;;20.11;55.97
39449;BME280;25151;45.566;9.382;2023-02-23T17:36:09;99607.25;;;20.11;56.06
39449;BME280;25151;45.566;9.382;2023-02-23T17:39:10;99610.06;;;20.11;55.98
39449;BME280;25151;45.566;9.382;2023-02-23T17:42:13;99608.47;;;20.10;55.95
39449;BME280;25151;45.566;9.382;2023-02-23T17:45:14;99616.88;;;20.10;56.20
39449;BME280;25151;45.566;9.382;2023-02-23T17:48:14;99614.97;;;20.07;56.09
39449;BME280;25151;45.566;9.382;2023-02-23T17:51:15;99622.16;;;20.08;55.74
39449;BME280;25151;45.566;9.382;2023-02-23T17:54:18;99622.03;;;20.12;56.01